Terminal Aerodrome Forecast
Issued by NWS Wakefield, VA

Home | Current Version | Previous Version | Text Only | Print | Product List | Glossary On
Versions: 1 2 3 4 5 6 7 8 9 10 11 12 13 14 15 16 17 18
000
FTUS41 KAKQ 271742 RRA
TAFECG
TAF
KECG 271742Z 2718/2818 14009KT P6SM SKC
     FM272200 16009KT P6SM VCTS BKN070CB
     FM280000 VRB05KT 6SM -SHRA BKN080
      TEMPO 2800/2802 VRB20KT 4SM TSRA OVC040CB
     FM280200 21006KT P6SM VCSH OVC080
     FM280600 27006KT P6SM BKN100
     FM281300 35004KT P6SM BKN070=

USA.gov is the U.S. government's official web portal to all federal, state and local government web resources and services.